Terminal Aerodrome Forecast
Issued by NWS Los Angeles, CA

Home | Current Version | Previous Version | Text Only | Print | Product List | Glossary On
Versions: 1 2 3 4 5 6 7 8 9 10 11 12 13 14 15 16 17 18 19 20 21
000
FTUS46 KLOX 111700
TAFSMX
TAF
KSMX 111735Z 1118/1218 VRB05KT P6SM OVC010
     FM111900 32012KT P6SM SCT015
     FM120300 30006KT P6SM OVC008
     FM120700 VRB03KT 6SM BR OVC004
     FM121600 VRB05KT P6SM OVC010=

USA.gov is the U.S. government's official web portal to all federal, state and local government web resources and services.